LFML 221330Z AUTO 27004KT CAVOK 15/11 Q1031 NOSIG

ElémentsDécodage
LFML Station météo située sur l'aérodrome de MARSEILLE PROVENCE
221330Z émis le 22 du mois à 13h30 UTC
AUTO Bulletin édité par un automate
27004KT vent du 270°, 04 noeuds
CAVOK Ceiling And Visibility OK
- Visibilité de 10 Km ou plus
- Pas de nuage au-dessous de 1500m ou au-dessous de l'altitude minimale du secteur la plus élevée (si>1500m) et absence de CB
- pas de temps présent significatif
15/11 température 15°C, point de rosée 11°C
 soit une humidité relative de 77%
Q1031 la pression au niveau de la mer (QNH) est de 1031 hPa
NOSIG Pas de changement significatif prévu au cours des deux heures suivant l'heure de l'observation